Time;durP1;ratioP1;P1;durP2;ratioP2;P2;SDS_P1;SDS_P2;PMS_P1;PMS_P2;Temp;Humidity;BMP_temperature;BMP_pressure;BME280_temperature;BME280_humidity;BME280_pressure;Samples;Min_cycle;Max_cycle;Signal;HPM_P1;HPM_P2
2024/01/08 00:00:00;;;;;;;4.63;2.90;;;;;;;-1.01;43.38;102404.47;4951010;28;20050;-86
2024/01/08 00:02:32;;;;;;;4.18;2.60;;;;;;;-1.01;43.22;102404.47;4972986;28;20507;-87
2024/01/08 00:05:01;;;;;;;4.22;2.47;;;;;;;-1.00;43.65;102408.06;4956117;28;20582;-86
2024/01/08 00:07:29;;;;;;;6.22;2.95;;;;;;;-1.02;43.52;102405.38;4957925;28;20039;-87
2024/01/08 00:10:00;;;;;;;5.13;2.90;;;;;;;-1.00;43.38;102411.63;4955554;28;20046;-86
2024/01/08 00:12:28;;;;;;;5.55;3.20;;;;;;;-1.00;43.37;102406.25;5050791;23;20080;-78
2024/01/08 00:14:56;;;;;;;5.32;2.83;;;;;;;-0.99;43.26;102413.41;4993859;28;20157;-77
2024/01/08 00:17:24;;;;;;;4.85;2.50;;;;;;;-0.98;43.61;102420.56;4974055;28;20521;-77
2024/01/08 00:19:54;;;;;;;4.95;3.00;;;;;;;-0.98;43.35;102412.50;4995076;28;20543;-78
2024/01/08 00:22:22;;;;;;;5.45;2.90;;;;;;;-1.01;43.17;102409.84;4994596;28;20084;-78
2024/01/08 00:24:50;;;;;;;5.25;2.92;;;;;;;-0.99;43.32;102412.53;4978708;28;20406;-78
2024/01/08 00:27:18;;;;;;;5.47;3.10;;;;;;;-1.00;43.26;102411.63;4976383;28;20059;-78
2024/01/08 00:29:46;;;;;;;4.15;2.40;;;;;;;-0.98;43.07;102414.31;5015310;28;20073;-77
2024/01/08 00:32:14;;;;;;;5.03;2.88;;;;;;;-0.98;43.45;102411.63;4995586;28;20057;-77
2024/01/08 00:34:42;;;;;;;5.43;3.00;;;;;;;-1.00;42.94;102410.75;4996609;28;20225;-78
2024/01/08 00:37:11;;;;;;;4.53;2.65;;;;;;;-0.98;43.01;102411.63;5008141;28;20046;-78
2024/01/08 00:39:39;;;;;;;5.20;2.75;;;;;;;-0.99;43.07;102402.66;4996457;28;20034;-78
2024/01/08 00:42:07;;;;;;;6.40;3.08;;;;;;;-0.99;42.84;102401.78;5025339;28;20085;-78
2024/01/08 00:44:35;;;;;;;6.03;3.10;;;;;;;-0.99;42.84;102401.78;5013887;28;20489;-77
2024/01/08 00:47:04;;;;;;;5.53;2.90;;;;;;;-0.99;43.20;102409.84;4995729;28;20068;-77
2024/01/08 00:49:32;;;;;;;4.38;2.80;;;;;;;-1.00;42.76;102402.69;4996317;28;20088;-78
2024/01/08 00:52:00;;;;;;;4.40;2.80;;;;;;;-1.00;42.86;102408.06;4996226;28;20132;-78
2024/01/08 00:54:29;;;;;;;4.97;2.80;;;;;;;-1.03;42.24;102402.72;4996081;28;20070;-78
2024/01/08 00:56:57;;;;;;;6.15;3.30;;;;;;;-1.03;42.88;102400.03;4999020;28;20068;-78
2024/01/08 00:59:25;;;;;;;5.03;2.92;;;;;;;-1.03;42.83;102397.34;5016025;28;20049;-78
2024/01/08 01:01:53;;;;;;;6.03;3.15;;;;;;;-1.05;42.90;102407.25;5004374;28;20038;-77
2024/01/08 01:04:21;;;;;;;5.82;3.17;;;;;;;-1.06;42.58;102406.38;5012725;28;20057;-77
2024/01/08 01:06:50;;;;;;;4.53;2.92;;;;;;;-1.05;42.86;102405.47;5011723;28;20088;-77
2024/01/08 01:09:18;;;;;;;5.47;3.20;;;;;;;-1.07;42.97;102406.38;4995946;28;20066;-78
2024/01/08 01:11:47;;;;;;;6.20;2.90;;;;;;;-1.07;42.63;102409.94;5014527;28;20108;-77
2024/01/08 01:14:15;;;;;;;6.28;2.90;;;;;;;-1.08;42.79;102413.53;5012746;28;20066;-78
2024/01/08 01:16:44;;;;;;;5.88;3.10;;;;;;;-1.09;42.88;102417.13;5012373;28;20092;-78
2024/01/08 01:19:12;;;;;;;5.07;3.15;;;;;;;-1.08;42.73;102424.28;4990923;28;20054;-77
2024/01/08 01:21:40;;;;;;;5.28;3.28;;;;;;;-1.08;43.02;102426.09;4991947;28;20050;-77
2024/01/08 01:24:09;;;;;;;5.57;3.38;;;;;;;-1.10;42.93;102422.53;4974743;28;20118;-78
2024/01/08 01:26:37;;;;;;;4.57;2.90;;;;;;;-1.07;43.18;102419.81;4993218;28;20051;-78
2024/01/08 01:29:06;;;;;;;4.88;3.20;;;;;;;-1.07;43.08;102439.50;4974815;28;20054;-77
2024/01/08 01:31:35;;;;;;;5.57;3.30;;;;;;;-1.07;43.23;102438.63;4990576;28;20050;-77
2024/01/08 01:34:06;;;;;;;5.90;3.55;;;;;;;-1.07;43.06;102444.88;4974870;28;20529;-78
2024/01/08 01:36:35;;;;;;;4.80;3.03;;;;;;;-1.06;42.98;102448.47;4975051;28;20042;-77
2024/01/08 01:39:03;;;;;;;5.75;3.20;;;;;;;-1.06;42.86;102451.16;4991172;28;20046;-77
2024/01/08 01:41:32;;;;;;;5.90;3.53;;;;;;;-1.06;43.09;102449.34;4974352;28;20094;-78
2024/01/08 01:44:00;;;;;;;5.90;3.60;;;;;;;-1.07;43.13;102447.56;4991820;28;20327;-77
2024/01/08 01:46:37;;;;;;;6.32;3.63;;;;;;;-1.04;41.92;102447.50;4992127;28;20047;-77
2024/01/08 01:49:06;;;;;;;6.05;3.53;;;;;;;-1.06;42.74;102460.09;4974795;28;20319;-77
2024/01/08 01:51:35;;;;;;;6.15;4.32;;;;;;;-1.08;42.89;102452.97;4991614;28;20044;-77
2024/01/08 01:54:03;;;;;;;5.90;3.97;;;;;;;-1.07;42.92;102460.13;4974146;28;20054;-77
2024/01/08 01:56:32;;;;;;;6.47;3.72;;;;;;;-1.11;42.91;102461.94;4974747;28;20740;-77
2024/01/08 01:59:03;;;;;;;7.00;3.80;;;;;;;-1.12;42.37;102457.47;5005806;28;20096;-77
2024/01/08 02:01:33;;;;;;;6.57;3.75;;;;;;;-1.11;42.89;102459.25;4992160;28;20046;-77
2024/01/08 02:04:02;;;;;;;6.10;3.63;;;;;;;-1.11;43.10;102461.06;4974457;28;20112;-77
2024/01/08 02:06:31;;;;;;;6.88;4.22;;;;;;;-1.11;43.04;102453.00;4991498;28;20091;-77
2024/01/08 02:08:59;;;;;;;7.03;4.43;;;;;;;-1.13;43.19;102452.16;4987785;28;20084;-78
2024/01/08 02:11:27;;;;;;;6.00;3.53;;;;;;;-1.11;43.32;102443.13;5011385;28;20361;-77
2024/01/08 02:13:56;;;;;;;5.60;3.95;;;;;;;-1.11;42.99;102448.50;5011608;28;20069;-77
2024/01/08 02:16:24;;;;;;;7.35;4.32;;;;;;;-1.10;43.02;102438.66;5025910;28;20058;-78
2024/01/08 02:18:54;;;;;;;6.70;4.47;;;;;;;-1.09;42.91;102438.63;4988809;28;20184;-77
2024/01/08 02:21:22;;;;;;;8.30;4.80;;;;;;;-1.09;43.32;102448.50;4991154;28;20532;-78
2024/01/08 02:23:51;;;;;;;8.50;5.15;;;;;;;-1.10;42.97;102444.91;5007880;28;20053;-77
2024/01/08 02:26:20;;;;;;;6.45;4.03;;;;;;;-1.10;43.05;102450.28;5002870;28;20065;-78
2024/01/08 02:28:48;;;;;;;8.13;5.03;;;;;;;-1.12;43.17;102440.47;4993226;28;20073;-78
2024/01/08 02:31:16;;;;;;;6.63;4.57;;;;;;;-1.13;43.29;102436.03;4992754;28;20579;-78
2024/01/08 02:33:44;;;;;;;7.38;4.43;;;;;;;-1.13;43.00;102441.41;4992118;28;20529;-78
2024/01/08 02:36:12;;;;;;;7.38;4.50;;;;;;;-1.15;43.08;102441.41;5007391;28;20389;-78
2024/01/08 02:38:40;;;;;;;7.90;4.60;;;;;;;-1.15;42.97;102441.41;5002089;28;20050;-79
2024/01/08 02:41:09;;;;;;;8.45;4.55;;;;;;;-1.15;43.29;102436.03;5011826;28;20069;-78
2024/01/08 02:43:37;;;;;;;7.05;4.28;;;;;;;-1.17;43.13;102445.91;4995370;28;20501;-78
2024/01/08 02:46:05;;;;;;;7.95;4.90;;;;;;;-1.19;43.12;102437.88;5004903;28;20041;-78
2024/01/08 02:48:33;;;;;;;7.10;4.35;;;;;;;-1.18;43.26;102441.44;5014356;28;20097;-79
2024/01/08 02:51:02;;;;;;;6.90;4.38;;;;;;;-1.19;43.29;102445.03;4998372;28;20061;-79
2024/01/08 02:53:30;;;;;;;7.43;4.65;;;;;;;-1.20;43.60;102441.47;5012310;28;20096;-77
2024/01/08 02:55:58;;;;;;;7.15;5.07;;;;;;;-1.20;43.24;102446.84;5016734;28;20050;-78
2024/01/08 02:58:27;;;;;;;8.32;4.70;;;;;;;-1.20;43.24;102445.94;5016839;28;20050;-78
2024/01/08 03:00:55;;;;;;;7.80;4.88;;;;;;;-1.21;43.40;102452.22;5016496;28;20330;-78
2024/01/08 03:03:23;;;;;;;9.35;5.55;;;;;;;-1.22;43.41;102456.72;5018452;28;20068;-79
2024/01/08 03:05:51;;;;;;;7.82;4.78;;;;;;;-1.23;43.68;102457.63;5037701;28;20124;-78
2024/01/08 03:08:19;;;;;;;7.15;4.65;;;;;;;-1.24;43.28;102463.03;5036145;28;20054;-78
2024/01/08 03:10:48;;;;;;;7.00;4.50;;;;;;;-1.26;43.46;102463.03;5035605;28;20045;-77
2024/01/08 03:13:16;;;;;;;7.88;5.07;;;;;;;-1.28;43.42;102456.78;5018017;28;20053;-78
2024/01/08 03:15:45;;;;;;;7.25;5.03;;;;;;;-1.27;43.34;102463.06;5035756;28;20049;-78
2024/01/08 03:18:13;;;;;;;7.80;5.13;;;;;;;-1.30;43.64;102465.81;4996155;28;20564;-78
2024/01/08 03:20:42;;;;;;;7.28;4.90;;;;;;;-1.29;43.51;102471.13;4997311;28;20238;-79
2024/01/08 03:23:10;;;;;;;7.80;5.07;;;;;;;-1.31;43.74;102461.34;4996047;28;20429;-78
2024/01/08 03:25:38;;;;;;;6.93;4.80;;;;;;;-1.31;43.47;102467.59;5027181;28;20042;-78
2024/01/08 03:28:06;;;;;;;8.68;5.68;;;;;;;-1.32;43.73;102473.88;4997905;28;20050;-77
2024/01/08 03:30:34;;;;;;;7.45;5.10;;;;;;;-1.30;43.72;102473.84;5014439;28;20096;-77
2024/01/08 03:33:04;;;;;;;8.70;5.32;;;;;;;-1.31;43.60;102480.13;4977870;28;20149;-77
2024/01/08 03:35:33;;;;;;;7.60;4.90;;;;;;;-1.32;43.88;102470.28;4984307;28;20279;-77
2024/01/08 03:38:01;;;;;;;10.27;5.75;;;;;;;-1.31;43.88;102480.13;5014633;28;20366;-77
2024/01/08 03:40:29;;;;;;;8.63;5.10;;;;;;;-1.34;43.83;102467.63;5030432;28;20052;-76
2024/01/08 03:42:57;;;;;;;8.88;4.90;;;;;;;-1.33;43.75;102476.56;5006148;28;20558;-77
2024/01/08 03:45:25;;;;;;;8.38;5.05;;;;;;;-1.35;44.04;102473.91;5033994;28;20041;-76
2024/01/08 03:47:53;;;;;;;7.97;5.28;;;;;;;-1.34;43.95;102477.47;5033764;28;20200;-77
2024/01/08 03:50:22;;;;;;;8.02;4.72;;;;;;;-1.34;43.78;102473.00;5014309;28;20108;-76
2024/01/08 03:52:51;;;;;;;9.82;5.30;;;;;;;-1.35;43.96;102471.22;5021916;28;20057;-76
2024/01/08 03:55:19;;;;;;;8.82;5.45;;;;;;;-1.34;43.96;102474.78;5033805;28;20105;-76
2024/01/08 03:57:47;;;;;;;8.43;5.53;;;;;;;-1.34;43.95;102477.47;5015491;28;20499;-76
2024/01/08 04:00:15;;;;;;;9.25;5.28;;;;;;;-1.33;44.13;102471.19;5033154;28;20053;-76
2024/01/08 04:02:43;;;;;;;7.35;4.82;;;;;;;-1.33;43.98;102473.88;5018321;28;20077;-77
2024/01/08 04:05:12;;;;;;;8.30;4.68;;;;;;;-1.32;43.91;102465.81;4999589;28;20046;-77
2024/01/08 04:07:42;;;;;;;9.23;5.25;;;;;;;-1.31;44.18;102467.59;5032627;28;20065;-76
2024/01/08 04:10:10;;;;;;;6.93;4.63;;;;;;;-1.31;44.20;102466.72;4993353;28;20425;-76
2024/01/08 04:12:38;;;;;;;7.40;4.65;;;;;;;-1.29;44.15;102470.22;4996644;28;20042;-77
2024/01/08 04:15:07;;;;;;;9.57;4.93;;;;;;;-1.27;44.28;102471.13;4995574;28;20505;-77
2024/01/08 04:17:35;;;;;;;8.13;4.60;;;;;;;-1.26;44.36;102467.53;5014331;28;20046;-76
2024/01/08 04:20:04;;;;;;;8.85;5.15;;;;;;;-1.25;44.08;102461.25;5005774;28;20128;-76
2024/01/08 04:22:32;;;;;;;7.90;5.28;;;;;;;-1.24;44.06;102460.34;5032529;28;20041;-77
2024/01/08 04:25:02;;;;;;;7.85;5.25;;;;;;;-1.21;44.43;102465.66;5013413;28;20278;-75
2024/01/08 04:27:30;;;;;;;7.70;5.13;;;;;;;-1.21;44.36;102465.66;5012929;28;20073;-78
2024/01/08 04:29:58;;;;;;;10.38;5.53;;;;;;;-1.21;44.68;102463.84;4995870;28;20449;-77
2024/01/08 04:32:26;;;;;;;8.02;4.88;;;;;;;-1.19;44.18;102471.91;5012812;28;20049;-77
2024/01/08 04:34:54;;;;;;;8.45;4.85;;;;;;;-1.19;44.24;102475.47;5013354;28;20050;-78
2024/01/08 04:37:22;;;;;;;7.93;5.20;;;;;;;-1.19;44.36;102471.91;4995360;28;20126;-77
2024/01/08 04:39:50;;;;;;;8.15;4.85;;;;;;;-1.18;44.48;102473.69;5013501;28;20044;-77
2024/01/08 04:42:20;;;;;;;8.98;5.40;;;;;;;-1.19;44.51;102467.41;4995023;28;20128;-78
2024/01/08 04:44:48;;;;;;;8.02;4.78;;;;;;;-1.17;44.35;102478.16;5013395;28;20465;-77
2024/01/08 04:47:16;;;;;;;8.43;5.20;;;;;;;-1.18;44.38;102466.50;5012974;28;20045;-76
2024/01/08 04:49:44;;;;;;;9.07;5.15;;;;;;;-1.15;44.64;102467.38;5028821;28;20045;-77
2024/01/08 04:52:12;;;;;;;7.57;4.90;;;;;;;-1.15;44.45;102473.66;5031973;28;20041;-77
2024/01/08 04:54:42;;;;;;;8.50;5.38;;;;;;;-1.12;44.47;102476.28;4995777;28;20516;-77
2024/01/08 04:57:10;;;;;;;7.10;4.78;;;;;;;-1.14;44.54;102467.38;5005773;28;20046;-77
2024/01/08 04:59:41;;;;;;;7.88;4.97;;;;;;;-1.10;44.56;102474.47;5025662;28;20045;-77
2024/01/08 05:02:10;;;;;;;8.15;5.07;;;;;;;-1.11;44.63;102478.06;5012600;28;20057;-77
2024/01/08 05:04:38;;;;;;;8.07;4.80;;;;;;;-1.10;44.54;102473.56;4995489;28;20049;-77
2024/01/08 05:07:07;;;;;;;7.90;5.03;;;;;;;-1.09;44.68;102472.66;5012222;28;20050;-78
2024/01/08 05:09:35;;;;;;;7.88;4.93;;;;;;;-1.09;44.51;102465.50;5012488;28;20461;-77
2024/01/08 05:12:03;;;;;;;7.90;4.75;;;;;;;-1.08;44.50;102464.59;4995051;28;20096;-77
2024/01/08 05:14:31;;;;;;;7.45;5.25;;;;;;;-1.07;44.75;102461.00;5009998;28;20045;-77
2024/01/08 05:17:00;;;;;;;8.05;5.18;;;;;;;-1.06;44.73;102461.91;5008009;28;20073;-77
2024/01/08 05:19:28;;;;;;;8.88;5.60;;;;;;;-1.07;44.91;102476.22;4994560;28;20096;-77
2024/01/08 05:21:56;;;;;;;8.48;5.75;;;;;;;-1.08;44.58;102469.06;4993499;28;20516;-77
2024/01/08 05:24:24;;;;;;;7.85;5.22;;;;;;;-1.08;44.49;102463.72;5032392;28;20572;-77
2024/01/08 05:26:52;;;;;;;8.30;5.38;;;;;;;-1.08;44.47;102459.22;5014291;28;20069;-76
2024/01/08 05:29:20;;;;;;;8.50;5.80;;;;;;;-1.08;44.87;102458.34;5031889;28;20041;-77
2024/01/08 05:31:48;;;;;;;7.53;4.95;;;;;;;-1.09;44.52;102462.81;5005082;28;20532;-77
2024/01/08 05:34:18;;;;;;;6.85;5.00;;;;;;;-1.07;44.63;102462.81;5007807;28;20578;-77
2024/01/08 05:36:46;;;;;;;9.60;5.72;;;;;;;-1.10;44.88;102461.03;4994153;28;20038;-78
2024/01/08 05:39:15;;;;;;;9.57;5.72;;;;;;;-1.10;44.75;102463.72;4992850;28;20100;-77
2024/01/08 05:41:43;;;;;;;8.18;5.32;;;;;;;-1.10;44.86;102460.16;4994458;28;20094;-78
2024/01/08 05:44:13;;;;;;;9.27;5.05;;;;;;;-1.09;44.76;102467.28;4997664;28;20517;-76
2024/01/08 05:46:42;;;;;;;9.55;5.35;;;;;;;-1.10;44.84;102461.03;5011406;28;20561;-77
2024/01/08 05:49:11;;;;;;;8.27;5.32;;;;;;;-1.10;44.75;102461.03;5011875;28;20104;-78
2024/01/08 05:51:40;;;;;;;8.50;5.18;;;;;;;-1.09;44.74;102457.44;4997609;28;20051;-77
2024/01/08 05:54:08;;;;;;;8.88;5.30;;;;;;;-1.10;44.86;102461.03;4993472;28;20050;-77
2024/01/08 05:56:37;;;;;;;9.00;4.88;;;;;;;-1.09;44.92;102460.13;5007977;28;20463;-77
2024/01/08 05:59:07;;;;;;;7.65;5.03;;;;;;;-1.09;44.82;102460.13;4993899;28;20046;-77
2024/01/08 06:01:35;;;;;;;7.45;4.93;;;;;;;-1.09;44.90;102456.56;4994226;28;20043;-77
2024/01/08 06:04:03;;;;;;;8.65;5.72;;;;;;;-1.10;44.83;102461.03;4994977;28;20045;-77
2024/01/08 06:06:31;;;;;;;8.13;5.63;;;;;;;-1.10;44.91;102452.97;5004770;28;20137;-77
2024/01/08 06:09:01;;;;;;;8.77;5.80;;;;;;;-1.11;44.77;102448.50;5010945;28;20049;-77
2024/01/08 06:11:29;;;;;;;9.13;5.95;;;;;;;-1.14;44.68;102450.38;4985565;28;20061;-78
2024/01/08 06:13:57;;;;;;;10.90;6.13;;;;;;;-1.17;44.90;102459.34;4991587;28;20449;-75
2024/01/08 06:16:25;;;;;;;9.05;5.93;;;;;;;-1.20;44.74;102452.19;4991545;28;20052;-76
2024/01/08 06:18:52;;;;;;;8.90;6.15;;;;;;;-1.18;44.78;102460.25;4997940;28;20050;-76
2024/01/08 06:21:21;;;;;;;9.75;5.65;;;;;;;-1.22;44.50;102454.06;5009306;28;20049;-76
2024/01/08 06:23:49;;;;;;;9.98;6.22;;;;;;;-1.22;44.82;102463.91;5013804;28;20562;-76
2024/01/08 06:26:20;;;;;;;9.77;5.93;;;;;;;-1.21;44.50;102460.28;5016889;28;20449;-76
2024/01/08 06:28:48;;;;;;;9.52;5.68;;;;;;;-1.23;44.74;102465.69;4997474;28;20042;-76
2024/01/08 06:31:17;;;;;;;8.82;5.85;;;;;;;-1.24;44.85;102469.28;4988306;28;20046;-75
2024/01/08 06:33:45;;;;;;;8.63;5.80;;;;;;;-1.24;44.83;102466.59;5026064;28;20099;-76
2024/01/08 06:36:13;;;;;;;9.40;5.97;;;;;;;-1.23;44.78;102467.50;5003078;28;20045;-76
2024/01/08 06:38:41;;;;;;;9.18;5.75;;;;;;;-1.25;45.01;102458.56;4999494;28;20045;-76
2024/01/08 06:41:08;;;;;;;9.27;6.03;;;;;;;-1.23;44.91;102475.56;5004292;28;20053;-76
2024/01/08 06:43:39;;;;;;;6.85;5.07;;;;;;;-1.21;45.02;102468.34;5009869;28;20520;-75
2024/01/08 06:46:07;;;;;;;8.68;5.70;;;;;;;-1.22;44.89;102461.22;5002946;28;20103;-76
2024/01/08 06:48:35;;;;;;;9.13;6.00;;;;;;;-1.23;44.99;102462.13;4996842;28;20117;-76
2024/01/08 06:51:04;;;;;;;8.60;6.22;;;;;;;-1.22;44.81;102461.22;4991353;28;20045;-76
2024/01/08 06:53:32;;;;;;;8.60;5.82;;;;;;;-1.21;45.01;102465.66;5014231;28;20038;-76
2024/01/08 06:56:00;;;;;;;8.30;5.60;;;;;;;-1.23;44.92;102465.69;5004145;28;20454;-76
2024/01/08 06:58:28;;;;;;;8.55;5.38;;;;;;;-1.20;44.81;102465.63;5007064;28;20057;-76
2024/01/08 07:00:57;;;;;;;9.77;5.63;;;;;;;-1.19;44.63;102458.47;5013207;28;20044;-77
2024/01/08 07:03:25;;;;;;;7.30;5.03;;;;;;;-1.21;44.56;102457.59;4996364;28;20410;-76
2024/01/08 07:05:53;;;;;;;8.45;5.68;;;;;;;-1.26;44.75;102452.28;4990252;28;20132;-75
2024/01/08 07:08:21;;;;;;;9.88;5.82;;;;;;;-1.24;44.50;102457.66;5009589;28;20132;-75
2024/01/08 07:10:49;;;;;;;9.15;6.10;;;;;;;-1.25;44.53;102466.63;5009416;28;20145;-75
2024/01/08 07:13:18;;;;;;;9.23;6.05;;;;;;;-1.26;44.75;102460.34;5009777;28;20446;-77
2024/01/08 07:15:48;;;;;;;8.85;5.38;;;;;;;-1.27;44.52;102466.63;5008963;28;20136;-77
2024/01/08 07:18:19;;;;;;;6.72;4.93;;;;;;;-1.27;44.50;102476.47;5002719;28;20042;-76
2024/01/08 07:20:47;;;;;;;8.73;5.90;;;;;;;-1.27;44.40;102473.78;5007074;28;20100;-75
2024/01/08 07:23:15;;;;;;;8.68;5.65;;;;;;;-1.31;44.43;102478.34;4988463;28;20045;-77
2024/01/08 07:25:43;;;;;;;8.05;5.82;;;;;;;-1.31;44.52;102482.81;4986900;28;20056;-76
2024/01/08 07:28:12;;;;;;;7.97;5.10;;;;;;;-1.30;44.43;102481.91;5001693;28;20137;-76
2024/01/08 07:30:41;;;;;;;7.00;5.10;;;;;;;-1.28;44.65;102482.75;4988010;28;20041;-77
2024/01/08 07:33:09;;;;;;;7.97;5.03;;;;;;;-1.28;44.61;102474.69;4989606;28;20061;-77
2024/01/08 07:35:38;;;;;;;6.80;4.70;;;;;;;-1.26;44.17;102479.16;4994744;28;20061;-77
2024/01/08 07:38:07;;;;;;;6.57;4.78;;;;;;;-1.26;44.51;102476.47;4992609;28;20042;-77
2024/01/08 07:40:35;;;;;;;8.38;4.68;;;;;;;-1.25;44.50;102477.34;5004272;28;20049;-76
2024/01/08 07:43:03;;;;;;;7.45;5.10;;;;;;;-1.25;44.43;102480.94;5003189;28;20053;-77
2024/01/08 07:45:31;;;;;;;7.43;4.88;;;;;;;-1.22;44.52;102490.75;5004530;28;20543;-78
2024/01/08 07:47:59;;;;;;;7.85;5.45;;;;;;;-1.23;44.61;102492.56;5011992;28;20073;-78
2024/01/08 07:50:28;;;;;;;8.10;5.05;;;;;;;-1.22;44.57;102485.41;5001876;28;20045;-78
2024/01/08 07:52:57;;;;;;;8.00;4.88;;;;;;;-1.19;44.18;102485.34;4990612;28;20042;-77
2024/01/08 07:55:25;;;;;;;7.68;5.15;;;;;;;-1.19;44.50;102491.59;4977362;28;20038;-78
2024/01/08 07:57:53;;;;;;;8.98;5.40;;;;;;;-1.21;44.30;102492.50;5001502;28;20038;-78
2024/01/08 08:00:22;;;;;;;8.07;4.70;;;;;;;-1.19;44.10;102490.69;5003068;28;20042;-78
2024/01/08 08:02:50;;;;;;;7.25;4.85;;;;;;;-1.23;44.32;102492.56;5006520;28;20038;-77
2024/01/08 08:05:19;;;;;;;7.93;5.00;;;;;;;-1.22;43.98;102494.34;4987971;28;20042;-79
2024/01/08 08:07:47;;;;;;;7.50;4.90;;;;;;;-1.21;44.37;102498.78;5007810;28;20034;-78
2024/01/08 08:10:16;;;;;;;7.35;4.43;;;;;;;-1.21;44.03;102489.81;5003665;28;20042;-78
2024/01/08 08:12:46;;;;;;;8.13;4.82;;;;;;;-1.23;43.98;102500.63;4998275;28;20197;-78
2024/01/08 08:15:14;;;;;;;7.63;4.43;;;;;;;-1.23;44.15;102502.41;5001529;28;20052;-78
2024/01/08 08:17:42;;;;;;;6.43;4.55;;;;;;;-1.24;43.98;102496.16;5003165;28;20049;-78
2024/01/08 08:20:11;;;;;;;6.65;4.30;;;;;;;-1.21;44.17;102500.56;5004166;28;20556;-78
2024/01/08 08:22:39;;;;;;;6.55;4.20;;;;;;;-1.23;44.10;102506.00;4995605;28;20066;-76
2024/01/08 08:25:11;;;;;;;8.05;5.32;;;;;;;-1.25;44.47;102510.50;5008667;28;20269;-77
2024/01/08 08:27:41;;;;;;;6.93;4.40;;;;;;;-1.21;43.89;102505.94;5006261;28;20342;-78
2024/01/08 08:30:11;;;;;;;8.98;4.70;;;;;;;-1.20;44.24;102513.09;4997691;28;20049;-77
2024/01/08 08:32:40;;;;;;;7.78;4.45;;;;;;;-1.21;44.41;102514.00;4989741;28;20128;-75
2024/01/08 08:35:09;;;;;;;7.40;4.22;;;;;;;-1.19;44.51;102520.25;4985501;28;20045;-76
2024/01/08 08:37:39;;;;;;;7.30;4.38;;;;;;;-1.18;44.54;102516.66;5007431;28;20056;-76
2024/01/08 08:40:20;;;;;;;7.27;4.77;;;;;;;-1.21;44.38;102516.69;5003007;28;20046;-76
2024/01/08 08:42:49;;;;;;;8.27;4.95;;;;;;;-1.19;44.69;102531.00;4984530;28;20042;-76
2024/01/08 08:45:18;;;;;;;7.35;4.70;;;;;;;-1.19;44.48;102526.53;4999259;28;20111;-76
2024/01/08 08:47:46;;;;;;;9.35;5.38;;;;;;;-1.18;44.83;102536.34;5008557;28;20496;-79
2024/01/08 08:50:15;;;;;;;8.73;4.93;;;;;;;-1.17;44.61;102521.13;4985626;28;20302;-81
2024/01/08 08:52:44;;;;;;;8.48;4.55;;;;;;;-1.18;44.66;102530.09;5002027;28;20049;-82
2024/01/08 08:55:13;;;;;;;8.27;5.03;;;;;;;-1.17;44.50;102534.56;4994577;28;20042;-80
2024/01/08 08:57:42;;;;;;;8.23;4.65;;;;;;;-1.15;44.42;102538.13;5012470;28;20119;-78
2024/01/08 09:00:12;;;;;;;8.00;4.85;;;;;;;-1.13;44.51;102538.13;4996259;28;20042;-80
2024/01/08 09:02:45;;;;;;;8.57;4.93;;;;;;;-1.12;44.77;102547.94;5011229;28;20425;-80
2024/01/08 09:05:13;;;;;;;9.38;5.15;;;;;;;-1.13;44.65;102543.50;4988434;28;20074;-80
2024/01/08 09:07:52;;;;;;;9.07;5.20;;;;;;;-1.14;44.71;102541.72;4995508;28;20048;-80
2024/01/08 09:10:20;;;;;;;7.63;4.40;;;;;;;-1.13;44.72;102540.81;4993273;28;20045;-82
2024/01/08 09:12:48;;;;;;;7.20;4.63;;;;;;;-1.12;44.62;102548.81;4993337;28;20042;-79
2024/01/08 09:15:18;;;;;;;8.18;5.10;;;;;;;-1.10;44.65;102546.13;5004324;28;20133;-80
2024/01/08 09:17:46;;;;;;;7.85;5.05;;;;;;;-1.12;44.92;102546.13;4991175;28;20128;-81
2024/01/08 09:20:15;;;;;;;9.02;4.82;;;;;;;-1.12;44.86;102540.75;4988060;28;20038;-80
2024/01/08 09:22:44;;;;;;;7.57;5.25;;;;;;;-1.14;44.70;102544.41;5014551;28;20072;-80
2024/01/08 09:25:12;;;;;;;9.18;5.40;;;;;;;-1.14;44.72;102542.59;5007622;28;20049;-78
2024/01/08 09:27:42;;;;;;;8.35;5.60;;;;;;;-1.14;44.84;102544.41;5010740;28;20307;-81
2024/01/08 09:30:10;;;;;;;7.30;4.93;;;;;;;-1.14;44.70;102541.72;4987250;28;20063;-82
2024/01/08 09:32:40;;;;;;;8.50;5.53;;;;;;;-1.14;44.88;102544.41;5001424;28;20063;-82
2024/01/08 09:35:08;;;;;;;7.93;5.03;;;;;;;-1.13;44.81;102548.88;4989308;28;20050;-80
2024/01/08 09:37:36;;;;;;;7.93;4.93;;;;;;;-1.15;45.09;102556.94;4990775;28;20041;-79
2024/01/08 09:40:05;;;;;;;8.45;5.50;;;;;;;-1.13;45.18;102551.56;5006334;28;20100;-80
2024/01/08 09:42:35;;;;;;;8.45;4.93;;;;;;;-1.14;45.01;102558.72;4988573;28;20049;-82
2024/01/08 09:45:07;;;;;;;7.53;4.72;;;;;;;-1.14;44.95;102553.34;4997671;28;20049;-80
2024/01/08 09:47:36;;;;;;;8.10;5.45;;;;;;;-1.14;45.00;102555.16;5015938;28;20056;-81
2024/01/08 09:50:07;;;;;;;7.63;5.40;;;;;;;-1.12;44.87;102556.00;4983409;28;20217;-80
2024/01/08 09:52:39;;;;;;;8.52;5.05;;;;;;;-1.11;44.83;102550.59;4996846;28;20042;-80
2024/01/08 09:55:10;;;;;;;8.77;5.45;;;;;;;-1.12;44.94;102554.19;4990730;28;20135;-80
2024/01/08 09:57:38;;;;;;;8.65;5.45;;;;;;;-1.13;45.01;102546.19;4990851;28;20054;-79
2024/01/08 10:00:09;;;;;;;6.32;4.90;;;;;;;-1.09;44.98;102542.53;4989867;28;20046;-81
2024/01/08 10:02:41;;;;;;;7.25;4.85;;;;;;;-1.10;44.76;102541.63;4992232;28;20060;-78
2024/01/08 10:05:11;;;;;;;7.47;4.95;;;;;;;-1.10;44.37;102546.13;5000193;28;20127;-82
2024/01/08 10:07:40;;;;;;;7.57;4.80;;;;;;;-1.11;44.29;102553.28;5007536;28;20465;-82
2024/01/08 10:10:08;;;;;;;6.63;4.40;;;;;;;-1.10;44.21;102548.81;4994628;28;20046;-81
2024/01/08 10:12:37;;;;;;;7.00;4.28;;;;;;;-1.11;44.28;102550.59;5005340;28;20429;-80
2024/01/08 10:15:08;;;;;;;7.18;4.15;;;;;;;-1.08;44.07;102564.00;5010012;28;20386;-81
2024/01/08 10:17:36;;;;;;;6.50;4.00;;;;;;;-1.07;44.14;102554.16;5011946;28;20052;-80
2024/01/08 10:20:09;;;;;;;6.95;4.20;;;;;;;-1.04;43.36;102546.94;4992551;28;20073;-82
2024/01/08 10:22:40;;;;;;;5.95;3.90;;;;;;;-1.02;44.20;102537.06;4983427;28;20466;-82
2024/01/08 10:25:09;;;;;;;7.72;4.18;;;;;;;-0.97;44.05;102539.69;5007344;28;20130;-81
2024/01/08 10:27:37;;;;;;;8.55;4.22;;;;;;;-0.95;43.85;102537.84;4987142;28;20418;-81
2024/01/08 10:30:07;;;;;;;6.68;4.28;;;;;;;-0.95;43.62;102540.53;4990665;28;20147;-81
2024/01/08 10:32:37;;;;;;;7.03;4.10;;;;;;;-0.95;42.48;102552.19;5010309;28;20049;-81
2024/01/08 10:35:07;;;;;;;7.60;3.70;;;;;;;-0.90;43.29;102546.78;5008853;28;20125;-79
2024/01/08 10:37:36;;;;;;;7.78;4.03;;;;;;;-0.91;43.19;102545.88;5008505;28;20108;-81
2024/01/08 10:40:09;;;;;;;5.38;3.35;;;;;;;-0.87;42.28;102542.22;4992190;28;20049;-81
2024/01/08 10:42:40;;;;;;;5.57;3.80;;;;;;;-0.88;42.51;102545.81;4996144;28;20038;-80
2024/01/08 10:45:09;;;;;;;6.75;4.05;;;;;;;-0.91;41.89;102527.06;4990114;28;20050;-80
2024/01/08 10:47:43;;;;;;;6.72;3.78;;;;;;;-0.92;41.60;102541.41;5007020;28;20025;-81
2024/01/08 10:50:14;;;;;;;5.57;3.30;;;;;;;-0.90;41.75;102534.22;4993138;28;20692;-79
2024/01/08 10:52:51;;;;;;;5.63;3.65;;;;;;;-0.91;41.19;102535.13;5005283;28;20050;-79
2024/01/08 10:55:22;;;;;;;5.95;4.03;;;;;;;-0.92;40.81;102538.72;5004222;28;20042;-81
2024/01/08 10:57:58;;;;;;;6.22;3.78;;;;;;;-0.92;40.15;102546.78;4997333;28;20042;-80
2024/01/08 11:00:26;;;;;;;6.28;3.47;;;;;;;-0.95;41.08;102538.75;4990175;28;20045;-81
2024/01/08 11:02:54;;;;;;;5.88;3.40;;;;;;;-0.94;41.17;102545.91;4989347;28;20128;-78
2024/01/08 11:05:22;;;;;;;5.47;3.17;;;;;;;-0.92;40.93;102535.16;5000585;28;20050;-80
2024/01/08 11:07:55;;;;;;;5.65;3.42;;;;;;;-0.92;40.58;102538.72;4980609;28;20545;-80
2024/01/08 11:10:24;;;;;;;6.50;3.55;;;;;;;-0.88;40.74;102553.00;5009246;28;20417;-77
2024/01/08 11:12:54;;;;;;;5.50;3.13;;;;;;;-0.86;40.87;102535.94;4997943;28;20457;-79
2024/01/08 11:15:25;;;;;;;5.43;3.28;;;;;;;-0.85;38.96;102547.59;4995401;28;20037;-78
2024/01/08 11:17:54;;;;;;;5.75;3.47;;;;;;;-0.83;40.03;102543.97;4994816;28;20081;-78
2024/01/08 11:20:42;;;;;;;5.70;3.03;;;;;;;-0.76;37.90;102542.09;5002995;28;20041;-79
2024/01/08 11:23:40;;;;;;;6.53;3.35;;;;;;;-0.79;36.06;102532.25;4991552;28;20097;-80
2024/01/08 11:26:14;;;;;;;5.90;3.30;;;;;;;-0.76;39.09;102534.03;5000534;28;20516;-81
2024/01/08 11:28:42;;;;;;;5.20;2.95;;;;;;;-0.74;39.23;102539.38;4990041;28;20049;-81
2024/01/08 11:31:40;;;;;;;5.53;3.00;;;;;;;-0.70;35.21;102536.63;4997213;28;20360;-81